UMGG

Gomel Airport

Gomel, Belarus
TAF UMGG 231700Z 2318/2418 VRB02MPS 9999 BKN020 TEMPO 2320/2403 10004MPS BECMG 2403/2405 12006MPS TEMPO 2405/2416 15007MPS 3000 -SHRA SCT020CB BECMG 2416/2418 22005MPS
Issued Valid From Valid To
Apr-23 @ 17:00 UTC
(6 hours ago)
Apr-23 @ 18:00 UTC
(5 hours ago)
Apr-24 @ 18:00 UTC
(in 19 hours)
Apr-23 @ 18:00 to Apr-24 @ 03:00
TAF UMGG 231700Z 2318/2418 VRB02MPS 9999 BKN020
Wind Visibility Clouds
Variable at 4 knots 10,000+ meters
  • Broken at 2,000' AGL
Temporary Apr-23 @ 20:00 to Apr-24 @ 03:00
TEMPO 2320/2403 10004MPS
Wind
100° at 8 knots
Becoming Apr-24 @ 03:00 to Apr-24 @ 16:00
BECMG 2403/2405 12006MPS
Wind Visibility Clouds
120° at 12 knots 10,000+ meters
  • Broken at 2,000' AGL
Temporary Apr-24 @ 05:00 to Apr-24 @ 16:00
TEMPO 2405/2416 15007MPS 3000 -SHRA SCT020CB
Wind Visibility Clouds Conditions
150° at 14 knots 2,993 meters
  • Scattered at 2,000' AGL
  • Light Rain
Becoming Apr-24 @ 16:00 to Apr-24 @ 18:00
BECMG 2416/2418 22005MPS
Wind Visibility Clouds
220° at 10 knots 10,000+ meters
  • Broken at 2,000' AGL
TAF UMGG 231700Z 2318/2418 VRB02MPS 9999 BKN020 TEMPO 2320/2403 10004MPS BECMG 2403/2405 12006MPS TEMPO 2405/2416 15007MPS 3000 -SHRA SCT020CB BECMG 2416/2418 22005MPS
Issued Apr-23 @ 17:00 UTC
(6 hours ago)
Valid From Apr-23 @ 18:00 UTC
(5 hours ago)
Valid To Apr-24 @ 18:00 UTC
(in 19 hours)
Apr-23 @ 18:00 - Apr-24 @ 03:00
Wind Visibility
Variable at 4 knots 10,000+ meters
Clouds
  • Broken at 2,000' AGL
Temporary Apr-23 @ 20:00 - Apr-24 @ 03:00
Wind
100° at 8 knots
Becoming Apr-24 @ 03:00 - Apr-24 @ 16:00
Wind Visibility
120° at 12 knots 10,000+ meters
Clouds
  • Broken at 2,000' AGL
Temporary Apr-24 @ 05:00 - Apr-24 @ 16:00
Wind Visibility
150° at 14 knots 2,993 meters
Clouds
  • Scattered at 2,000' AGL
Conditions
  • Light Rain
Becoming Apr-24 @ 16:00 - Apr-24 @ 18:00
Wind Visibility
220° at 10 knots 10,000+ meters
Clouds
  • Broken at 2,000' AGL